createdAt,value
2022-09-28T00:02:19.002Z,9.10
2022-09-28T00:07:20.811Z,9.10
2022-09-28T00:12:23.809Z,9.00
2022-09-28T00:17:26.464Z,9.00
2022-09-28T00:22:28.417Z,8.90
2022-09-28T00:27:30.044Z,8.90
2022-09-28T00:32:31.686Z,8.80
2022-09-28T00:37:33.690Z,8.90
2022-09-28T00:42:35.345Z,9.00
2022-09-28T00:47:51.911Z,9.20
2022-09-28T00:53:08.581Z,9.20
2022-09-28T00:58:14.161Z,9.10
2022-09-28T01:03:16.810Z,9.00
2022-09-28T01:08:21.165Z,9.00
2022-09-28T01:13:24.395Z,8.90
2022-09-28T01:18:40.801Z,8.90
2022-09-28T01:23:57.166Z,8.80
2022-09-28T01:29:19.108Z,8.70
2022-09-28T01:34:35.864Z,8.70
2022-09-28T01:39:41.753Z,8.60
2022-09-28T01:44:47.305Z,8.60
2022-09-28T01:50:16.031Z,8.50
2022-09-28T01:55:28.260Z,8.50
2022-09-28T02:00:30.430Z,8.40
2022-09-28T02:05:41.953Z,8.30
2022-09-28T02:11:13.133Z,8.30
2022-09-28T02:16:25.078Z,8.20
2022-09-28T02:21:35.808Z,8.10
2022-09-28T02:26:43.025Z,8.10
2022-09-28T02:31:44.741Z,8.10
2022-09-28T02:36:47.639Z,8.00
2022-09-28T02:42:14.162Z,7.90
2022-09-28T02:47:41.166Z,7.80
2022-09-28T02:53:21.983Z,7.80
2022-09-28T02:58:34.928Z,7.80
2022-09-28T03:03:50.613Z,7.80
2022-09-28T03:09:04.470Z,7.80
2022-09-28T03:14:06.885Z,7.80
2022-09-28T03:19:08.543Z,7.80
2022-09-28T03:24:11.044Z,7.80
2022-09-28T03:29:12.854Z,8.00
2022-09-28T03:34:14.527Z,8.30
2022-09-28T03:39:16.192Z,8.50
2022-09-28T03:44:17.882Z,8.60
2022-09-28T03:49:19.540Z,8.70
2022-09-28T03:54:21.150Z,8.80
2022-09-28T03:59:22.834Z,8.80
2022-09-28T04:04:24.503Z,8.90
2022-09-28T04:09:26.238Z,8.90
2022-09-28T04:14:28.446Z,8.90
2022-09-28T04:19:30.169Z,8.90
2022-09-28T04:24:31.831Z,8.90
2022-09-28T04:29:33.517Z,8.80
2022-09-28T04:34:37.221Z,8.80
2022-09-28T04:39:44.030Z,8.90
2022-09-28T04:44:49.143Z,8.80
2022-09-28T04:49:51.101Z,8.90
2022-09-28T04:54:52.785Z,8.90
2022-09-28T04:59:54.449Z,8.90
2022-09-28T05:04:56.468Z,8.90
2022-09-28T05:09:58.174Z,9.00
2022-09-28T05:15:00.557Z,9.10
2022-09-28T05:20:02.992Z,9.20
2022-09-28T05:25:04.949Z,9.10
2022-09-28T05:30:07.355Z,9.10
2022-09-28T05:35:11.061Z,9.10
2022-09-28T05:40:13.702Z,9.20
2022-09-28T05:45:15.711Z,9.30
2022-09-28T05:50:17.614Z,9.40
2022-09-28T05:55:19.266Z,9.50
2022-09-28T06:00:20.903Z,9.60
2022-09-28T06:05:22.836Z,9.60
2022-09-28T06:10:25.924Z,9.70
2022-09-28T06:15:30.351Z,9.80
2022-09-28T06:20:35.228Z,9.80
2022-09-28T06:25:37.235Z,9.80
2022-09-28T06:30:40.012Z,9.90
2022-09-28T06:35:42.429Z,9.90
2022-09-28T06:40:44.215Z,9.90
2022-09-28T06:45:51.656Z,10.00
2022-09-28T06:50:53.737Z,10.00
2022-09-28T06:55:56.850Z,10.00
2022-09-28T07:00:59.379Z,10.00
2022-09-28T07:06:02.337Z,10.10
2022-09-28T07:11:07.958Z,10.20
2022-09-28T07:16:09.677Z,10.30
2022-09-28T07:21:24.293Z,10.20
2022-09-28T07:26:28.700Z,10.20
2022-09-28T07:31:32.184Z,10.20
2022-09-28T07:36:35.074Z,10.20
2022-09-28T07:41:38.437Z,10.20
2022-09-28T07:46:41.000Z,10.30
2022-09-28T07:51:44.757Z,10.40
2022-09-28T07:56:46.394Z,10.40
2022-09-28T08:01:49.564Z,10.50
2022-09-28T08:06:51.209Z,10.40
2022-09-28T08:11:52.912Z,10.40
2022-09-28T08:16:54.568Z,10.50
2022-09-28T08:21:56.197Z,10.40
2022-09-28T08:26:58.968Z,10.40
2022-09-28T08:32:01.710Z,10.30
2022-09-28T08:37:05.019Z,10.30
2022-09-28T08:42:33.585Z,10.30
2022-09-28T08:48:04.293Z,10.30
2022-09-28T08:53:24.839Z,10.30
2022-09-28T08:58:30.422Z,10.40
2022-09-28T09:03:41.763Z,10.40
2022-09-28T09:09:04.012Z,10.60
2022-09-28T09:14:20.972Z,10.70
2022-09-28T09:19:55.239Z,10.90
2022-09-28T09:25:20.337Z,11.10
2022-09-28T09:30:22.522Z,11.30
2022-09-28T09:35:58.365Z,11.50
2022-09-28T09:41:35.279Z,11.70
2022-09-28T09:46:39.739Z,12.20
2022-09-28T09:51:48.147Z,12.60
2022-09-28T09:56:59.373Z,12.80
2022-09-28T10:02:11.855Z,12.80
2022-09-28T10:07:25.769Z,12.80
2022-09-28T10:12:28.650Z,13.00
2022-09-28T10:17:30.317Z,13.30
2022-09-28T10:22:33.048Z,13.60
2022-09-28T10:27:36.423Z,13.90
2022-09-28T10:32:41.190Z,13.90
2022-09-28T10:38:00.319Z,13.40
2022-09-28T10:43:40.934Z,12.60
2022-09-28T10:48:56.361Z,12.40
2022-09-28T10:54:02.977Z,12.20
2022-09-28T10:59:24.633Z,12.20
2022-09-28T11:04:29.424Z,12.30
2022-09-28T11:09:33.533Z,12.10
2022-09-28T11:14:42.177Z,12.10
2022-09-28T11:19:44.847Z,12.40
2022-09-28T11:24:47.634Z,12.50
2022-09-28T11:29:58.575Z,12.50
2022-09-28T11:35:00.701Z,12.70
2022-09-28T11:40:42.869Z,12.70
2022-09-28T11:46:10.453Z,12.60
2022-09-28T11:51:20.207Z,12.90
2022-09-28T11:56:35.171Z,13.60
2022-09-28T12:02:03.355Z,13.70
2022-09-28T12:07:35.429Z,14.10
2022-09-28T12:12:47.787Z,12.90
2022-09-28T12:18:06.357Z,13.00
2022-09-28T12:23:14.346Z,13.40
2022-09-28T12:28:27.380Z,12.30
2022-09-28T12:33:29.061Z,12.20
2022-09-28T12:39:35.824Z,12.20
2022-09-28T12:44:45.607Z,13.10
2022-09-28T12:50:38.081Z,13.10
2022-09-28T12:55:56.291Z,12.60
2022-09-28T13:01:16.978Z,12.80
2022-09-28T13:06:24.919Z,12.60
2022-09-28T13:11:34.161Z,12.30
2022-09-28T13:16:47.735Z,12.10
2022-09-28T13:22:16.612Z,12.00
2022-09-28T13:27:40.495Z,12.50
2022-09-28T13:32:43.615Z,13.20
2022-09-28T13:37:45.697Z,12.80
2022-09-28T13:42:53.066Z,12.60
2022-09-28T13:48:12.963Z,12.50
2022-09-28T13:53:32.157Z,12.30
2022-09-28T13:58:44.159Z,12.80
2022-09-28T14:04:12.592Z,13.10
2022-09-28T14:09:15.768Z,13.20
2022-09-28T14:14:17.402Z,13.60
2022-09-28T14:19:26.545Z,13.60
2022-09-28T14:24:34.179Z,13.70
2022-09-28T14:29:38.272Z,13.80
2022-09-28T14:34:48.129Z,13.60
2022-09-28T14:40:08.746Z,13.60
2022-09-28T14:45:10.453Z,13.20
2022-09-28T14:50:30.216Z,12.50
2022-09-28T14:55:48.049Z,12.30
2022-09-28T15:00:54.792Z,12.40
2022-09-28T15:05:56.600Z,12.70
2022-09-28T15:11:00.796Z,12.40
2022-09-28T15:16:11.354Z,12.70
2022-09-28T15:21:13.668Z,13.30
2022-09-28T15:26:28.819Z,14.20
2022-09-28T15:31:35.035Z,13.50
2022-09-28T15:36:46.372Z,12.80
2022-09-28T15:41:50.359Z,12.40
2022-09-28T15:47:06.759Z,12.30
2022-09-28T15:52:25.792Z,12.40
2022-09-28T15:57:45.679Z,12.30
2022-09-28T16:03:03.671Z,12.10
2022-09-28T16:08:05.924Z,12.00
2022-09-28T16:13:20.659Z,11.90
2022-09-28T16:18:23.541Z,11.90
2022-09-28T16:23:33.333Z,11.80
2022-09-28T16:28:35.045Z,11.70
2022-09-28T16:33:43.896Z,11.60
2022-09-28T16:38:46.551Z,11.70
2022-09-28T16:43:48.590Z,11.80
2022-09-28T16:48:50.695Z,11.60
2022-09-28T16:54:10.803Z,11.50
2022-09-28T16:59:18.994Z,11.50
2022-09-28T17:04:20.652Z,11.50
2022-09-28T17:09:23.128Z,11.50
2022-09-28T17:14:24.819Z,11.50
2022-09-28T17:19:28.602Z,11.40
2022-09-28T17:24:30.223Z,11.30
2022-09-28T17:29:32.576Z,11.30
2022-09-28T17:34:34.200Z,11.20
2022-09-28T17:39:35.909Z,11.10
2022-09-28T17:44:37.560Z,11.10
2022-09-28T17:49:40.029Z,11.00
2022-09-28T17:54:41.672Z,10.90
2022-09-28T17:59:43.286Z,10.80
2022-09-28T18:04:52.213Z,10.70
2022-09-28T18:09:56.686Z,10.60
2022-09-28T18:14:58.418Z,10.40
2022-09-28T18:20:00.145Z,10.20
2022-09-28T18:25:01.804Z,10.30
2022-09-28T18:30:04.866Z,10.30
2022-09-28T18:35:08.702Z,10.10
2022-09-28T18:40:13.294Z,10.00
2022-09-28T18:45:17.195Z,9.90
2022-09-28T18:50:18.932Z,10.10
2022-09-28T18:55:20.603Z,10.00
2022-09-28T19:00:22.238Z,9.80
2022-09-28T19:05:23.872Z,9.60
2022-09-28T19:10:25.850Z,9.50
2022-09-28T19:15:27.594Z,9.40
2022-09-28T19:20:29.334Z,9.30
2022-09-28T19:25:30.979Z,9.20
2022-09-28T19:30:32.804Z,9.20
2022-09-28T19:35:34.468Z,9.10
2022-09-28T19:40:36.989Z,9.00
2022-09-28T19:45:39.713Z,9.10
2022-09-28T19:50:41.558Z,9.20
2022-09-28T19:55:43.235Z,9.30
2022-09-28T20:00:44.867Z,9.40
2022-09-28T20:05:49.251Z,9.30
2022-09-28T20:10:54.898Z,9.10
2022-09-28T20:15:56.619Z,9.10
2022-09-28T20:21:06.491Z,9.10
2022-09-28T20:26:11.818Z,9.10
2022-09-28T20:31:20.306Z,8.90
2022-09-28T20:36:24.383Z,8.80
2022-09-28T20:41:27.234Z,8.70
2022-09-28T20:46:29.061Z,8.60
2022-09-28T20:51:31.082Z,8.60
2022-09-28T20:56:40.405Z,8.50
2022-09-28T21:01:42.117Z,8.40
2022-09-28T21:06:43.905Z,8.30
2022-09-28T21:11:46.335Z,8.30
2022-09-28T21:16:47.992Z,8.20
2022-09-28T21:21:50.237Z,8.20
2022-09-28T21:26:51.861Z,8.10
2022-09-28T21:31:53.482Z,8.00
2022-09-28T21:36:55.505Z,8.00
2022-09-28T21:41:57.185Z,7.90
2022-09-28T21:46:58.874Z,7.90
2022-09-28T21:52:01.972Z,7.90
2022-09-28T21:57:03.647Z,7.90
2022-09-28T22:02:06.596Z,7.80
2022-09-28T22:07:08.230Z,7.80
2022-09-28T22:12:09.872Z,7.80
2022-09-28T22:17:11.486Z,7.80
2022-09-28T22:22:13.147Z,7.80
2022-09-28T22:27:15.451Z,8.00
2022-09-28T22:32:17.081Z,8.10
2022-09-28T22:37:19.096Z,8.30
2022-09-28T22:42:21.649Z,8.50
2022-09-28T22:47:23.374Z,8.50
2022-09-28T22:52:25.206Z,8.60
2022-09-28T22:57:26.809Z,8.60
2022-09-28T23:02:28.458Z,8.60
2022-09-28T23:07:30.144Z,8.70
2022-09-28T23:12:33.297Z,8.70
2022-09-28T23:17:34.999Z,8.70
2022-09-28T23:22:36.657Z,8.80
2022-09-28T23:27:38.293Z,8.80
2022-09-28T23:32:39.984Z,8.80
2022-09-28T23:37:41.588Z,8.70
2022-09-28T23:42:43.239Z,8.70
2022-09-28T23:47:44.854Z,8.80
2022-09-28T23:52:48.217Z,8.80
2022-09-28T23:57:49.916Z,8.80
